createdAt,value
2018-09-04T00:00:11.060Z,35.87
2018-09-04T00:05:14.298Z,35.17
2018-09-04T00:10:17.505Z,35.60
2018-09-04T00:15:20.734Z,36.73
2018-09-04T00:20:23.951Z,37.37
2018-09-04T00:25:27.172Z,34.70
2018-09-04T00:30:30.459Z,38.40
2018-09-04T00:35:33.696Z,39.53
2018-09-04T00:40:36.910Z,40.77
2018-09-04T00:45:41.143Z,47.53
2018-09-04T00:50:44.578Z,38.87
2018-09-04T00:55:47.873Z,37.80
2018-09-04T01:00:51.103Z,36.40
2018-09-04T01:05:54.330Z,37.00
2018-09-04T01:10:57.629Z,39.70
2018-09-04T01:16:00.818Z,41.60
2018-09-04T01:21:04.146Z,43.90
2018-09-04T01:26:07.374Z,43.80
2018-09-04T01:31:10.572Z,41.87
2018-09-04T01:36:13.784Z,39.43
2018-09-04T01:41:17.034Z,42.90
2018-09-04T01:46:20.303Z,44.23
2018-09-04T01:51:24.133Z,44.97
2018-09-04T01:56:27.338Z,50.67
2018-09-04T02:01:30.643Z,56.00
2018-09-04T02:06:33.825Z,60.33
2018-09-04T02:11:37.157Z,62.93
2018-09-04T02:16:40.381Z,58.50
2018-09-04T02:21:43.574Z,62.43
2018-09-04T02:26:46.816Z,60.70
2018-09-04T02:31:50.583Z,57.07
2018-09-04T02:36:53.782Z,55.20
2018-09-04T02:41:56.954Z,54.03
2018-09-04T02:47:00.149Z,51.77
2018-09-04T02:52:03.395Z,51.13
2018-09-04T02:57:06.606Z,47.50
2018-09-04T03:02:09.835Z,50.67
2018-09-04T03:07:13.032Z,45.97
2018-09-04T03:12:16.265Z,51.30
2018-09-04T03:17:20.654Z,54.73
2018-09-04T03:22:23.875Z,49.67
2018-09-04T03:27:27.111Z,53.87
2018-09-04T03:32:30.327Z,49.87
2018-09-04T03:37:33.554Z,46.93
2018-09-04T03:42:36.850Z,43.30
2018-09-04T03:47:40.060Z,48.57
2018-09-04T03:52:43.296Z,43.57
2018-09-04T03:57:46.544Z,43.33
2018-09-04T04:02:49.753Z,47.27
2018-09-04T04:07:52.982Z,46.30
2018-09-04T04:12:56.231Z,49.87
2018-09-04T04:18:00.454Z,45.93
2018-09-04T04:23:03.694Z,46.17
2018-09-04T04:28:06.913Z,44.57
2018-09-04T04:33:10.191Z,47.00
2018-09-04T04:38:13.390Z,40.10
2018-09-04T04:43:16.588Z,46.50
2018-09-04T04:48:19.939Z,48.53
2018-09-04T04:53:23.041Z,44.53
2018-09-04T04:58:26.288Z,44.70
2018-09-04T05:03:29.547Z,42.23
2018-09-04T05:08:32.754Z,47.90
2018-09-04T05:13:36.020Z,45.77
2018-09-04T05:18:39.239Z,57.27
2018-09-04T05:23:42.884Z,46.57
2018-09-04T05:28:46.099Z,50.73
2018-09-04T05:33:49.347Z,52.13
2018-09-04T05:38:52.588Z,45.67
2018-09-04T05:43:58.478Z,48.27
2018-09-04T05:49:07.692Z,56.83
2018-09-04T05:54:10.979Z,60.43
2018-09-04T05:59:14.274Z,60.73
2018-09-04T06:04:17.582Z,61.53
2018-09-04T06:09:20.886Z,63.40
2018-09-04T06:14:24.792Z,60.13
2018-09-04T06:19:28.057Z,59.73
2018-09-04T06:24:31.269Z,58.73
2018-09-04T06:29:34.520Z,62.90
2018-09-04T06:34:37.733Z,61.60
2018-09-04T06:39:40.987Z,69.00
2018-09-04T06:44:44.263Z,70.50
2018-09-04T06:49:47.499Z,77.67
2018-09-04T06:54:52.648Z,79.63
2018-09-04T06:59:55.880Z,80.57
2018-09-04T07:04:59.110Z,78.23
2018-09-04T07:10:03.486Z,90.20
2018-09-04T07:15:06.980Z,85.60
2018-09-04T07:20:11.250Z,84.77
2018-09-04T07:25:14.608Z,77.13
2018-09-04T07:30:18.901Z,89.70
2018-09-04T07:35:22.132Z,81.93
2018-09-04T07:40:25.338Z,89.40
2018-09-04T07:45:30.642Z,85.37
2018-09-04T07:50:33.912Z,96.47
2018-09-04T07:55:37.195Z,101.80
2018-09-04T08:00:40.422Z,100.07
2018-09-04T08:05:43.946Z,98.47
2018-09-04T08:10:49.239Z,91.83
2018-09-04T08:15:52.521Z,97.93
2018-09-04T08:20:55.789Z,96.07
2018-09-04T08:25:59.114Z,103.17
2018-09-04T08:31:02.358Z,102.03
2018-09-04T08:36:05.585Z,97.53
2018-09-04T08:41:08.804Z,88.63
2018-09-04T08:46:11.993Z,89.23
2018-09-04T08:51:15.308Z,92.97
2018-09-04T08:56:18.597Z,87.60
2018-09-04T09:01:22.869Z,95.00
2018-09-04T09:06:26.104Z,89.70
2018-09-04T09:11:30.372Z,84.67
2018-09-04T09:16:33.644Z,86.30
2018-09-04T09:21:36.935Z,87.80
2018-09-04T09:26:40.231Z,84.77
2018-09-04T09:31:43.527Z,85.83
2018-09-04T09:36:46.915Z,82.10
2018-09-04T09:41:52.114Z,83.67
2018-09-04T09:47:01.626Z,83.33
2018-09-04T09:52:06.942Z,82.07
2018-09-04T09:57:10.295Z,80.37
2018-09-04T10:02:18.770Z,74.53
2018-09-04T10:07:22.093Z,71.80
2018-09-04T10:12:26.327Z,73.40
2018-09-04T10:17:29.541Z,63.23
2018-09-04T10:22:32.783Z,61.70
2018-09-04T10:27:36.218Z,63.43
2018-09-04T10:32:39.463Z,62.60
2018-09-04T10:37:43.702Z,58.60
2018-09-04T10:42:46.967Z,58.33
2018-09-04T10:47:50.320Z,63.83
2018-09-04T10:52:53.671Z,56.37
2018-09-04T10:58:00.550Z,57.13
2018-09-04T11:03:03.767Z,64.17
2018-09-04T11:08:07.124Z,57.50
2018-09-04T11:13:10.375Z,57.43
2018-09-04T11:18:13.617Z,54.50
2018-09-04T11:23:16.878Z,51.60
2018-09-04T11:28:20.303Z,52.20
2018-09-04T11:33:23.558Z,48.87
2018-09-04T11:38:26.794Z,45.10
2018-09-04T11:43:30.123Z,42.27
2018-09-04T11:48:37.696Z,45.07
2018-09-04T11:53:40.966Z,43.37
2018-09-04T11:58:44.193Z,44.00
2018-09-04T12:03:47.514Z,45.97
2018-09-04T12:08:50.734Z,43.03
2018-09-04T12:13:53.982Z,39.53
2018-09-04T12:18:57.364Z,34.93
2018-09-04T12:24:00.614Z,41.67
2018-09-04T12:29:03.867Z,34.63
2018-09-04T12:34:07.123Z,39.00
2018-09-04T12:39:10.549Z,38.37
2018-09-04T12:44:14.919Z,35.43
2018-09-04T12:49:18.160Z,32.63
2018-09-04T12:54:22.439Z,26.77
2018-09-04T12:59:25.698Z,24.93
2018-09-04T13:04:28.930Z,24.57
2018-09-04T13:09:32.135Z,24.40
2018-09-04T13:14:35.371Z,25.40
2018-09-04T13:19:38.747Z,24.63
2018-09-04T13:24:41.978Z,27.40
2018-09-04T13:29:45.230Z,23.97
2018-09-04T13:34:48.551Z,21.80
2018-09-04T13:39:56.247Z,26.03
2018-09-04T13:44:59.605Z,30.50
2018-09-04T13:50:03.758Z,30.23
2018-09-04T13:55:07.341Z,35.23
2018-09-04T14:00:12.143Z,38.73
2018-09-04T14:05:15.551Z,36.33
2018-09-04T14:10:19.060Z,38.13
2018-09-04T14:15:22.322Z,31.30
2018-09-04T14:20:25.734Z,26.90
2018-09-04T14:25:28.982Z,21.40
2018-09-04T14:30:32.275Z,18.33
2018-09-04T14:36:06.165Z,21.50
2018-09-04T14:41:09.357Z,17.83
2018-09-04T14:46:12.571Z,19.83
2018-09-04T14:51:15.819Z,18.63
2018-09-04T14:56:19.063Z,19.03
2018-09-04T15:01:22.343Z,16.53
2018-09-04T15:06:25.662Z,21.30
2018-09-04T15:11:28.950Z,21.10
2018-09-04T15:16:32.357Z,19.63
2018-09-04T15:21:35.593Z,23.63
2018-09-04T15:26:38.887Z,19.73
2018-09-04T15:31:42.208Z,22.10
2018-09-04T15:36:45.390Z,20.33
2018-09-04T15:41:48.685Z,21.03
2018-09-04T15:46:51.961Z,25.50
2018-09-04T15:51:55.265Z,24.93
2018-09-04T15:56:58.561Z,25.57
2018-09-04T16:02:01.846Z,21.97
2018-09-04T16:07:05.179Z,21.93
2018-09-04T16:12:08.393Z,19.00
2018-09-04T16:17:11.583Z,16.40
2018-09-04T16:22:14.846Z,17.80
2018-09-04T16:27:18.094Z,15.83
2018-09-04T16:32:21.298Z,19.10
2018-09-04T16:37:24.558Z,18.03
2018-09-04T16:42:27.879Z,21.43
2018-09-04T16:47:31.119Z,18.73
2018-09-04T16:52:34.389Z,19.77
2018-09-04T16:57:38.746Z,20.53
2018-09-04T17:02:42.003Z,19.13
2018-09-04T17:07:45.578Z,19.60
2018-09-04T17:12:48.819Z,20.60
2018-09-04T17:17:52.159Z,19.50
2018-09-04T17:22:55.634Z,20.50
2018-09-04T17:27:58.971Z,23.30
2018-09-04T17:33:02.207Z,20.63
2018-09-04T17:38:05.549Z,19.23
2018-09-04T17:43:08.818Z,18.40
2018-09-04T17:48:12.046Z,21.17
2018-09-04T17:53:15.290Z,20.10
2018-09-04T17:58:18.610Z,19.33
2018-09-04T18:03:21.948Z,23.13
2018-09-04T18:08:25.279Z,19.70
2018-09-04T18:13:28.517Z,19.13
2018-09-04T18:18:31.819Z,19.63
2018-09-04T18:23:35.237Z,20.23
2018-09-04T18:28:38.517Z,22.93
2018-09-04T18:33:41.747Z,21.90
2018-09-04T18:38:45.126Z,21.73
2018-09-04T18:43:48.510Z,22.10
2018-09-04T18:48:54.465Z,22.83
2018-09-04T18:53:57.930Z,24.03
2018-09-04T18:59:01.160Z,21.50
2018-09-04T19:04:04.535Z,24.83
2018-09-04T19:09:08.047Z,26.93
2018-09-04T19:14:11.478Z,24.80
2018-09-04T19:19:14.913Z,24.80
2018-09-04T19:24:19.257Z,25.77
2018-09-04T19:29:22.467Z,25.60
2018-09-04T19:34:25.775Z,27.00
2018-09-04T19:39:29.036Z,26.20
2018-09-04T19:44:32.306Z,24.93
2018-09-04T19:49:35.588Z,25.97
2018-09-04T19:54:38.943Z,26.10
2018-09-04T19:59:42.218Z,25.53
2018-09-04T20:04:46.503Z,27.27
2018-09-04T20:09:49.781Z,27.13
2018-09-04T20:14:56.655Z,26.13
2018-09-04T20:19:59.939Z,27.23
2018-09-04T20:25:03.259Z,28.10
2018-09-04T20:30:06.493Z,28.13
2018-09-04T20:35:09.758Z,26.33
2018-09-04T20:40:13.079Z,25.93
2018-09-04T20:45:16.348Z,27.80
2018-09-04T20:50:20.713Z,28.10
2018-09-04T20:55:24.012Z,26.73
2018-09-04T21:00:39.642Z,27.93
2018-09-04T21:05:54.314Z,28.23
2018-09-04T21:10:59.563Z,27.87
2018-09-04T21:16:02.793Z,28.57
2018-09-04T21:21:06.402Z,27.70
2018-09-04T21:26:09.674Z,28.27
2018-09-04T21:31:12.901Z,26.73
2018-09-04T21:36:18.121Z,27.27
2018-09-04T21:41:21.364Z,26.87
2018-09-04T21:46:24.587Z,27.97
2018-09-04T21:51:27.843Z,27.23
2018-09-04T21:56:31.087Z,27.60
2018-09-04T22:01:34.436Z,27.93
2018-09-04T22:06:39.655Z,28.20
2018-09-04T22:11:42.953Z,27.27
2018-09-04T22:16:46.178Z,27.03
2018-09-04T22:21:49.418Z,25.90
2018-09-04T22:26:53.759Z,24.90
2018-09-04T22:31:57.034Z,25.17
2018-09-04T22:37:00.362Z,25.40
2018-09-04T22:42:03.618Z,25.03
2018-09-04T22:47:06.841Z,26.60
2018-09-04T22:52:10.092Z,26.17
2018-09-04T22:57:13.350Z,26.17
2018-09-04T23:02:16.588Z,25.00
2018-09-04T23:07:20.008Z,26.53
2018-09-04T23:12:23.247Z,24.77
2018-09-04T23:17:26.482Z,24.53
2018-09-04T23:22:29.765Z,24.90
2018-09-04T23:27:33.020Z,25.37
2018-09-04T23:32:36.283Z,24.93
2018-09-04T23:37:39.562Z,25.07
2018-09-04T23:42:42.795Z,25.63
2018-09-04T23:47:46.064Z,26.43
2018-09-04T23:52:49.317Z,23.77
2018-09-04T23:57:52.590Z,25.43
